createdAt,value
2017-06-03T00:01:40.676Z,21.30
2017-06-03T00:04:08.171Z,21.20
2017-06-03T00:06:35.672Z,21.10
2017-06-03T00:09:03.159Z,21.10
2017-06-03T00:11:30.709Z,21.20
2017-06-03T00:13:58.188Z,21.20
2017-06-03T00:16:25.691Z,21.20
2017-06-03T00:18:53.938Z,21.00
2017-06-03T00:21:21.446Z,21.00
2017-06-03T00:23:48.931Z,20.80
2017-06-03T00:26:16.422Z,20.90
2017-06-03T00:28:44.672Z,20.90
2017-06-03T00:31:12.209Z,20.90
2017-06-03T00:33:39.689Z,20.90
2017-06-03T00:36:07.172Z,21.00
2017-06-03T00:38:34.678Z,21.00
2017-06-03T00:41:02.161Z,21.00
2017-06-03T00:43:29.660Z,21.10
2017-06-03T00:45:57.149Z,21.00
2017-06-03T00:48:24.647Z,21.10
2017-06-03T00:50:52.131Z,21.10
2017-06-03T00:53:19.636Z,21.10
2017-06-03T00:55:47.892Z,21.00
2017-06-03T00:58:15.390Z,21.00
2017-06-03T01:00:42.870Z,20.80
2017-06-03T01:03:10.351Z,20.80
2017-06-03T01:05:37.854Z,20.80
2017-06-03T01:08:05.334Z,20.80
2017-06-03T01:10:32.835Z,20.70
2017-06-03T01:13:00.314Z,20.60
2017-06-03T01:15:27.824Z,20.50
2017-06-03T01:17:55.310Z,20.50
2017-06-03T01:20:23.579Z,20.60
2017-06-03T01:22:51.829Z,20.50
2017-06-03T01:25:19.334Z,20.50
2017-06-03T01:27:46.827Z,20.50
2017-06-03T01:30:14.306Z,20.50
2017-06-03T01:32:41.803Z,20.50
2017-06-03T01:35:09.289Z,20.40
2017-06-03T01:37:36.786Z,20.40
2017-06-03T01:40:04.271Z,20.50
2017-06-03T01:42:31.772Z,20.50
2017-06-03T01:44:59.259Z,20.40
2017-06-03T01:47:26.757Z,20.50
2017-06-03T01:49:54.239Z,20.50
2017-06-03T01:52:21.739Z,20.60
2017-06-03T01:54:49.227Z,20.80
2017-06-03T01:57:16.743Z,20.80
2017-06-03T01:59:44.219Z,20.90
2017-06-03T02:02:11.698Z,20.90
2017-06-03T02:04:39.206Z,20.90
2017-06-03T02:07:06.690Z,20.90
2017-06-03T02:09:34.184Z,21.00
2017-06-03T02:12:01.659Z,20.90
2017-06-03T02:14:29.164Z,20.90
2017-06-03T02:16:56.651Z,20.70
2017-06-03T02:19:24.918Z,20.60
2017-06-03T02:21:53.180Z,20.70
2017-06-03T02:24:20.678Z,20.60
2017-06-03T02:26:48.154Z,20.70
2017-06-03T02:29:15.670Z,20.50
2017-06-03T02:31:43.915Z,20.30
2017-06-03T02:34:11.397Z,20.30
2017-06-03T02:36:39.663Z,20.30
2017-06-03T02:39:07.910Z,20.40
2017-06-03T02:41:35.418Z,20.40
2017-06-03T02:44:02.898Z,20.50
2017-06-03T02:46:30.399Z,20.50
2017-06-03T02:48:57.887Z,20.50
2017-06-03T02:51:25.388Z,20.30
2017-06-03T02:53:52.870Z,20.30
2017-06-03T02:56:21.130Z,20.30
2017-06-03T02:58:49.379Z,20.40
2017-06-03T03:01:16.883Z,20.40
2017-06-03T03:03:44.390Z,20.30
2017-06-03T03:06:11.901Z,20.30
2017-06-03T03:08:39.404Z,20.20
2017-06-03T03:11:06.890Z,20.20
2017-06-03T03:13:35.156Z,20.30
2017-06-03T03:16:03.410Z,20.30
2017-06-03T03:18:30.906Z,20.30
2017-06-03T03:20:58.390Z,20.30
2017-06-03T03:23:25.889Z,20.30
2017-06-03T03:25:54.142Z,20.20
2017-06-03T03:28:21.663Z,20.20
2017-06-03T03:30:49.144Z,20.30
2017-06-03T03:33:16.630Z,20.30
2017-06-03T03:35:44.897Z,20.30
2017-06-03T03:38:13.154Z,20.30
2017-06-03T03:40:40.663Z,20.30
2017-06-03T03:43:08.147Z,20.40
2017-06-03T03:45:35.652Z,20.50
2017-06-03T03:48:03.140Z,20.50
2017-06-03T03:50:30.640Z,20.60
2017-06-03T03:52:58.901Z,20.70
2017-06-03T03:55:26.419Z,20.70
2017-06-03T03:57:53.900Z,20.70
2017-06-03T04:00:21.379Z,20.70
2017-06-03T04:02:49.647Z,20.50
2017-06-03T04:05:17.912Z,20.40
2017-06-03T04:07:45.416Z,20.40
2017-06-03T04:10:12.901Z,20.30
2017-06-03T04:12:40.402Z,20.40
2017-06-03T04:15:07.885Z,20.40
2017-06-03T04:17:35.391Z,20.50
2017-06-03T04:20:02.871Z,20.60
2017-06-03T04:22:31.147Z,20.60
2017-06-03T04:24:58.626Z,20.60
2017-06-03T04:27:26.115Z,20.70
2017-06-03T04:29:53.621Z,20.70
2017-06-03T04:32:21.098Z,20.80
2017-06-03T04:34:48.601Z,20.70
2017-06-03T04:37:16.084Z,20.80
2017-06-03T04:39:43.579Z,20.90
2017-06-03T04:42:11.058Z,20.90
2017-06-03T04:44:38.559Z,20.90
2017-06-03T04:47:06.043Z,21.00
2017-06-03T04:49:33.549Z,20.90
2017-06-03T04:52:01.034Z,20.90
2017-06-03T04:54:28.559Z,20.90
2017-06-03T04:56:56.049Z,20.90
2017-06-03T04:59:23.534Z,21.00
2017-06-03T05:01:51.040Z,21.10
2017-06-03T05:04:18.538Z,21.20
2017-06-03T05:06:46.035Z,21.20
2017-06-03T05:09:13.533Z,21.30
2017-06-03T05:11:41.034Z,21.30
2017-06-03T05:14:09.287Z,21.50
2017-06-03T05:16:36.788Z,21.40
2017-06-03T05:19:04.268Z,21.40
2017-06-03T05:21:32.139Z,21.30
2017-06-03T05:23:59.619Z,21.40
2017-06-03T05:26:27.139Z,21.40
2017-06-03T05:28:54.619Z,21.40
2017-06-03T05:31:22.108Z,21.50
2017-06-03T05:33:49.610Z,21.50
2017-06-03T05:36:17.097Z,21.50
2017-06-03T05:38:45.363Z,21.50
2017-06-03T05:41:12.835Z,21.50
2017-06-03T05:43:41.103Z,21.80
2017-06-03T05:46:09.352Z,21.90
2017-06-03T05:48:36.851Z,21.90
2017-06-03T05:51:04.333Z,22.20
2017-06-03T05:53:31.813Z,22.40
2017-06-03T05:55:59.356Z,22.50
2017-06-03T05:58:26.844Z,22.50
2017-06-03T06:00:55.118Z,22.80
2017-06-03T06:03:23.362Z,22.80
2017-06-03T06:05:50.861Z,22.80
2017-06-03T06:08:18.350Z,22.70
2017-06-03T06:10:45.853Z,22.50
2017-06-03T06:13:14.102Z,23.40
2017-06-03T06:15:41.598Z,23.40
2017-06-03T06:18:09.843Z,23.90
2017-06-03T06:20:37.338Z,23.90
2017-06-03T06:23:04.826Z,24.70
2017-06-03T06:25:32.322Z,25.30
2017-06-03T06:28:00.565Z,27.10
2017-06-03T06:30:28.043Z,27.00
2017-06-03T06:32:56.318Z,26.50
2017-06-03T06:35:23.799Z,26.40
2017-06-03T06:37:51.302Z,25.20
2017-06-03T06:40:18.783Z,25.00
2017-06-03T06:42:46.279Z,25.00
2017-06-03T06:45:13.771Z,25.20
2017-06-03T06:47:41.267Z,25.20
2017-06-03T06:50:08.746Z,25.00
2017-06-03T06:52:36.263Z,25.10
2017-06-03T06:55:04.511Z,25.90
2017-06-03T06:57:31.995Z,25.90
2017-06-03T07:00:00.256Z,26.60
2017-06-03T07:02:28.546Z,27.00
2017-06-03T07:04:56.043Z,27.00
2017-06-03T07:07:23.529Z,27.70
2017-06-03T07:09:51.023Z,28.30
2017-06-03T07:12:18.511Z,28.30
2017-06-03T07:14:46.006Z,27.80
2017-06-03T07:17:14.252Z,27.10
2017-06-03T07:19:41.756Z,27.10
2017-06-03T07:22:09.239Z,27.10
2017-06-03T07:24:36.738Z,27.80
2017-06-03T07:27:04.990Z,27.30
2017-06-03T07:29:32.482Z,27.30
2017-06-03T07:31:59.963Z,27.40
2017-06-03T07:34:27.460Z,28.30
2017-06-03T07:36:54.943Z,28.60
2017-06-03T07:39:22.434Z,28.10
2017-06-03T07:41:49.916Z,27.80
2017-06-03T07:44:17.442Z,27.50
2017-06-03T07:46:44.931Z,27.10
2017-06-03T07:49:12.415Z,27.10
2017-06-03T07:51:40.675Z,27.00
2017-06-03T07:54:08.923Z,26.50
2017-06-03T07:56:36.430Z,26.50
2017-06-03T07:59:03.903Z,26.10
2017-06-03T08:01:31.399Z,26.10
2017-06-03T08:03:58.874Z,25.70
2017-06-03T08:06:27.148Z,26.10
2017-06-03T08:08:55.394Z,26.00
2017-06-03T08:11:22.919Z,25.90
2017-06-03T08:13:50.398Z,25.70
2017-06-03T08:16:17.923Z,25.50
2017-06-03T08:18:45.459Z,25.40
2017-06-03T08:21:12.931Z,25.40
2017-06-03T08:23:40.438Z,25.20
2017-06-03T08:26:08.691Z,25.30
2017-06-03T08:28:36.192Z,25.30
2017-06-03T08:31:03.684Z,25.40
2017-06-03T08:33:31.222Z,26.80
2017-06-03T08:35:58.719Z,28.00
2017-06-03T08:38:26.232Z,28.30
2017-06-03T08:40:53.719Z,27.80
2017-06-03T08:43:21.211Z,27.80
2017-06-03T08:45:48.710Z,28.60
2017-06-03T08:48:16.195Z,29.00
2017-06-03T08:50:43.688Z,28.20
2017-06-03T08:53:11.170Z,28.20
2017-06-03T08:55:38.662Z,28.00
2017-06-03T08:58:06.139Z,28.50
2017-06-03T09:00:34.403Z,30.20
2017-06-03T09:03:02.652Z,30.60
2017-06-03T09:05:30.148Z,30.60
2017-06-03T09:07:57.638Z,29.50
2017-06-03T09:10:25.115Z,29.30
2017-06-03T09:12:52.614Z,30.00
2017-06-03T09:15:20.084Z,30.70
2017-06-03T09:17:47.583Z,31.00
2017-06-03T09:20:15.060Z,32.00
2017-06-03T09:22:43.486Z,32.70
2017-06-03T09:25:10.966Z,32.70
2017-06-03T09:27:38.466Z,32.50
2017-06-03T09:30:05.947Z,33.10
2017-06-03T09:32:33.451Z,32.20
2017-06-03T09:35:01.703Z,31.10
2017-06-03T09:37:29.219Z,31.20
2017-06-03T09:39:56.699Z,32.50
2017-06-03T09:42:24.174Z,32.80
2017-06-03T09:44:51.688Z,32.20
2017-06-03T09:47:19.167Z,31.60
2017-06-03T09:49:46.678Z,32.00
2017-06-03T09:52:14.158Z,31.90
2017-06-03T09:54:41.651Z,31.90
2017-06-03T09:57:09.130Z,31.50
2017-06-03T09:59:37.390Z,32.10
2017-06-03T10:02:05.643Z,32.20
2017-06-03T10:04:33.150Z,32.20
2017-06-03T10:07:00.632Z,32.40
2017-06-03T10:09:28.114Z,32.80
2017-06-03T10:11:55.607Z,33.10
2017-06-03T10:14:23.082Z,32.60
2017-06-03T10:16:51.141Z,32.70
2017-06-03T10:19:18.619Z,33.00
2017-06-03T10:21:46.115Z,33.30
2017-06-03T10:24:14.362Z,31.80
2017-06-03T10:26:41.851Z,31.80
2017-06-03T10:29:10.090Z,32.80
2017-06-03T10:31:37.584Z,32.80
2017-06-03T10:34:05.058Z,33.00
2017-06-03T10:36:32.537Z,33.00
2017-06-03T10:39:00.032Z,33.90
2017-06-03T10:41:28.281Z,32.90
2017-06-03T10:43:55.775Z,32.80
2017-06-03T10:46:23.247Z,31.30
2017-06-03T10:48:50.746Z,31.50
2017-06-03T10:51:18.226Z,32.20
2017-06-03T10:53:46.492Z,33.40
2017-06-03T10:56:14.735Z,33.00
2017-06-03T10:58:42.232Z,33.00
2017-06-03T11:01:10.479Z,33.30
2017-06-03T11:03:37.956Z,33.20
2017-06-03T11:06:06.218Z,32.30
2017-06-03T11:08:34.466Z,31.50
2017-06-03T11:11:01.960Z,31.50
2017-06-03T11:13:30.201Z,29.90
2017-06-03T11:15:57.699Z,29.80
2017-06-03T11:18:25.164Z,29.30
2017-06-03T11:20:52.659Z,28.70
2017-06-03T11:23:20.138Z,28.40
2017-06-03T11:25:48.431Z,28.00
2017-06-03T11:28:15.905Z,28.00
2017-06-03T11:30:43.378Z,27.80
2017-06-03T11:33:10.878Z,27.80
2017-06-03T11:35:39.130Z,27.40
2017-06-03T11:38:06.623Z,27.40
2017-06-03T11:40:34.915Z,27.20
2017-06-03T11:43:02.403Z,27.20
2017-06-03T11:45:29.874Z,27.20
2017-06-03T11:47:57.368Z,27.20
2017-06-03T11:50:24.838Z,26.90
2017-06-03T11:52:52.339Z,26.60
2017-06-03T11:55:19.808Z,26.30
2017-06-03T11:57:48.082Z,25.80
2017-06-03T12:00:16.322Z,25.80
2017-06-03T12:02:43.798Z,25.80
2017-06-03T12:05:11.283Z,25.70
2017-06-03T12:07:38.761Z,25.20
2017-06-03T12:10:06.258Z,25.00
2017-06-03T12:12:33.738Z,24.90
2017-06-03T12:15:01.239Z,24.80
2017-06-03T12:17:28.719Z,24.40
2017-06-03T12:19:56.214Z,24.00
2017-06-03T12:22:24.458Z,22.80
2017-06-03T12:24:52.727Z,22.40
2017-06-03T12:27:20.982Z,22.00
2017-06-03T12:29:48.475Z,22.00
2017-06-03T12:32:15.948Z,21.50
2017-06-03T12:34:43.426Z,21.10
2017-06-03T12:37:10.926Z,21.10
2017-06-03T12:39:39.173Z,21.40
2017-06-03T12:42:06.687Z,21.30
2017-06-03T12:44:34.171Z,21.30
2017-06-03T12:47:01.670Z,21.30
2017-06-03T12:49:29.151Z,21.20
2017-06-03T12:51:56.638Z,21.10
2017-06-03T12:54:24.115Z,21.20
2017-06-03T12:56:51.629Z,21.30
2017-06-03T12:59:19.119Z,21.40
2017-06-03T13:01:46.598Z,21.40
2017-06-03T13:04:15.074Z,21.00
2017-06-03T13:06:42.559Z,20.90
2017-06-03T13:09:10.056Z,21.00
2017-06-03T13:11:37.539Z,21.30
2017-06-03T13:14:05.030Z,21.20
2017-06-03T13:16:32.507Z,21.30
2017-06-03T13:19:00.002Z,21.50
2017-06-03T13:21:27.479Z,21.50
2017-06-03T13:23:55.022Z,21.80
2017-06-03T13:26:22.499Z,22.00
2017-06-03T13:28:49.994Z,22.00
2017-06-03T13:31:17.491Z,21.90
2017-06-03T13:33:44.967Z,22.00
2017-06-03T13:36:12.462Z,22.00
2017-06-03T13:38:39.942Z,21.80
2017-06-03T13:41:08.202Z,21.60
2017-06-03T13:43:36.443Z,21.60
2017-06-03T13:46:04.729Z,21.50
2017-06-03T13:48:32.227Z,21.50
2017-06-03T13:51:00.303Z,21.20
2017-06-03T13:53:27.786Z,21.50
2017-06-03T13:55:55.284Z,21.80
2017-06-03T13:58:23.527Z,21.90
2017-06-03T14:00:51.007Z,21.90
2017-06-03T14:03:19.266Z,22.00
2017-06-03T14:05:46.750Z,22.00
2017-06-03T14:08:15.002Z,21.80
2017-06-03T14:10:42.475Z,21.80
2017-06-03T14:13:10.735Z,21.70
2017-06-03T14:15:38.977Z,22.00
2017-06-03T14:18:06.467Z,22.00
2017-06-03T14:20:34.710Z,22.50
2017-06-03T14:23:02.204Z,22.50
2017-06-03T14:25:29.690Z,22.70
2017-06-03T14:27:57.176Z,22.70
2017-06-03T14:30:24.662Z,22.70
2017-06-03T14:32:52.903Z,23.20
2017-06-03T14:35:20.390Z,23.20
2017-06-03T14:37:47.859Z,23.20
2017-06-03T14:40:15.358Z,23.10
2017-06-03T14:42:42.838Z,23.40
2017-06-03T14:45:10.328Z,23.70
2017-06-03T14:47:37.824Z,24.00
2017-06-03T14:50:05.315Z,23.80
2017-06-03T14:52:33.558Z,23.90
2017-06-03T14:55:01.054Z,23.90
2017-06-03T14:57:28.536Z,24.20
2017-06-03T14:59:56.047Z,24.10
2017-06-03T15:02:24.292Z,24.20
2017-06-03T15:04:51.766Z,24.20
2017-06-03T15:07:19.271Z,24.00
2017-06-03T15:09:46.742Z,23.80
2017-06-03T15:12:14.257Z,23.60
2017-06-03T15:14:41.735Z,23.90
2017-06-03T15:17:09.214Z,23.90
2017-06-03T15:19:36.769Z,23.90
2017-06-03T15:22:04.243Z,23.80
2017-06-03T15:24:31.740Z,23.60
2017-06-03T15:26:59.289Z,23.50
2017-06-03T15:29:26.763Z,23.60
2017-06-03T15:31:54.243Z,24.00
2017-06-03T15:34:21.744Z,24.10
2017-06-03T15:36:49.990Z,24.50
2017-06-03T15:39:17.494Z,24.50
2017-06-03T15:41:44.998Z,24.70
2017-06-03T15:44:12.475Z,25.00
2017-06-03T15:46:39.955Z,25.00
2017-06-03T15:49:07.472Z,25.00
2017-06-03T15:51:35.711Z,25.00
2017-06-03T15:54:03.182Z,25.00
2017-06-03T15:56:30.680Z,24.90
2017-06-03T15:58:58.162Z,24.60
2017-06-03T16:01:25.664Z,24.70
2017-06-03T16:03:53.898Z,24.60
2017-06-03T16:06:21.371Z,24.60
2017-06-03T16:08:48.866Z,24.60
2017-06-03T16:11:16.344Z,24.50
2017-06-03T16:13:43.855Z,24.50
2017-06-03T16:16:12.103Z,24.60
2017-06-03T16:18:39.578Z,24.50
2017-06-03T16:21:07.844Z,24.50
2017-06-03T16:23:35.321Z,24.50
2017-06-03T16:26:02.831Z,24.50
2017-06-03T16:28:30.308Z,24.30
2017-06-03T16:30:57.786Z,24.20
2017-06-03T16:33:26.050Z,24.10
2017-06-03T16:35:53.550Z,24.10
2017-06-03T16:38:21.062Z,24.00
2017-06-03T16:40:49.307Z,23.90
2017-06-03T16:43:16.790Z,23.90
2017-06-03T16:45:45.067Z,24.00
2017-06-03T16:48:12.576Z,24.00
2017-06-03T16:50:40.086Z,24.00
2017-06-03T16:53:07.574Z,23.90
2017-06-03T16:55:35.048Z,23.80
2017-06-03T16:58:02.544Z,23.80
2017-06-03T17:00:30.787Z,23.60
2017-06-03T17:02:58.295Z,23.50
2017-06-03T17:05:25.770Z,23.50
2017-06-03T17:07:53.246Z,23.50
2017-06-03T17:10:20.753Z,23.50
2017-06-03T17:12:48.240Z,23.40
2017-06-03T17:15:15.742Z,23.40
2017-06-03T17:17:43.227Z,23.40
2017-06-03T17:20:10.711Z,23.50
2017-06-03T17:22:38.204Z,23.50
2017-06-03T17:25:05.691Z,23.50
2017-06-03T17:27:33.189Z,23.50
2017-06-03T17:30:00.669Z,23.50
2017-06-03T17:32:28.911Z,23.40
2017-06-03T17:34:56.398Z,23.40
2017-06-03T17:37:24.647Z,23.40
2017-06-03T17:39:52.162Z,23.30
2017-06-03T17:42:19.639Z,23.30
2017-06-03T17:44:47.132Z,23.20
2017-06-03T17:47:15.415Z,23.10
2017-06-03T17:49:42.896Z,23.00
2017-06-03T17:52:10.399Z,22.90
2017-06-03T17:54:37.876Z,22.70
2017-06-03T17:57:05.363Z,22.80
2017-06-03T17:59:32.848Z,22.80
2017-06-03T18:02:00.336Z,22.80
2017-06-03T18:04:27.874Z,22.80
2017-06-03T18:06:56.111Z,22.80
2017-06-03T18:09:23.586Z,22.80
2017-06-03T18:11:51.075Z,22.70
2017-06-03T18:14:18.543Z,22.60
2017-06-03T18:16:46.058Z,22.60
2017-06-03T18:19:13.539Z,22.50
2017-06-03T18:21:41.020Z,22.60
2017-06-03T18:24:08.512Z,22.60
2017-06-03T18:26:35.986Z,22.50
2017-06-03T18:29:04.244Z,22.40
2017-06-03T18:31:31.720Z,22.40
2017-06-03T18:33:59.994Z,22.30
2017-06-03T18:36:28.241Z,22.30
2017-06-03T18:38:55.718Z,22.30
2017-06-03T18:41:23.222Z,22.20
2017-06-03T18:43:50.704Z,22.10
2017-06-03T18:46:18.239Z,22.10
2017-06-03T18:48:45.715Z,22.00
2017-06-03T18:51:13.200Z,22.00
2017-06-03T18:53:40.696Z,21.90
2017-06-03T18:56:08.174Z,21.80
2017-06-03T18:58:35.691Z,21.70
2017-06-03T19:01:03.171Z,21.50
2017-06-03T19:03:30.649Z,21.50
2017-06-03T19:05:58.149Z,21.40
2017-06-03T19:08:25.635Z,21.40
2017-06-03T19:10:53.140Z,21.40
2017-06-03T19:13:20.628Z,21.30
2017-06-03T19:15:48.115Z,21.30
2017-06-03T19:18:15.615Z,21.30
2017-06-03T19:20:43.104Z,21.30
2017-06-03T19:23:10.903Z,21.20
2017-06-03T19:25:39.160Z,21.10
2017-06-03T19:28:06.642Z,21.10
2017-06-03T19:30:34.910Z,21.00
2017-06-03T19:33:03.166Z,20.90
2017-06-03T19:35:30.686Z,20.90
2017-06-03T19:37:58.167Z,20.80
2017-06-03T19:40:25.648Z,20.80
2017-06-03T19:42:53.918Z,20.80
2017-06-03T19:45:21.403Z,20.70
2017-06-03T19:47:48.924Z,20.80
2017-06-03T19:50:17.181Z,20.50
2017-06-03T19:52:44.678Z,20.50
2017-06-03T19:55:12.174Z,20.40
2017-06-03T19:57:39.661Z,20.40
2017-06-03T20:00:07.963Z,20.10
2017-06-03T20:02:35.482Z,20.10
2017-06-03T20:05:03.742Z,19.60
2017-06-03T20:07:31.255Z,19.60
2017-06-03T20:09:58.739Z,19.50
2017-06-03T20:12:26.251Z,19.30
2017-06-03T20:14:53.745Z,19.30
2017-06-03T20:17:21.226Z,19.20
2017-06-03T20:19:48.726Z,19.10
2017-06-03T20:22:16.213Z,19.10
2017-06-03T20:24:43.715Z,19.00
2017-06-03T20:27:11.196Z,19.00
2017-06-03T20:29:38.683Z,18.90
2017-06-03T20:32:06.178Z,18.80
2017-06-03T20:34:33.671Z,18.70
2017-06-03T20:37:01.188Z,18.60
2017-06-03T20:39:28.667Z,18.50
2017-06-03T20:41:56.152Z,18.40
2017-06-03T20:44:23.638Z,18.30
2017-06-03T20:46:51.884Z,18.20
2017-06-03T20:49:19.405Z,18.20
2017-06-03T20:51:46.887Z,18.10
2017-06-03T20:54:14.365Z,18.10
2017-06-03T20:56:41.859Z,18.10
2017-06-03T20:59:09.336Z,18.10
2017-06-03T21:01:36.854Z,18.00
2017-06-03T21:04:04.339Z,18.00
2017-06-03T21:06:31.827Z,18.10
2017-06-03T21:08:59.335Z,18.10
2017-06-03T21:11:26.819Z,18.10
2017-06-03T21:13:54.332Z,18.10
2017-06-03T21:16:21.810Z,18.10
2017-06-03T21:18:49.295Z,18.10
2017-06-03T21:21:16.796Z,18.10
2017-06-03T21:23:44.274Z,18.30
2017-06-03T21:26:11.770Z,18.30
2017-06-03T21:28:39.244Z,18.30
2017-06-03T21:31:07.503Z,18.50
2017-06-03T21:33:35.022Z,18.50
2017-06-03T21:36:03.134Z,18.50
2017-06-03T21:38:30.662Z,18.50
2017-06-03T21:40:58.153Z,18.40
2017-06-03T21:43:26.398Z,18.50
2017-06-03T21:45:53.892Z,18.50
2017-06-03T21:48:21.377Z,18.50
2017-06-03T21:50:48.870Z,18.50
2017-06-03T21:53:16.351Z,18.40
2017-06-03T21:55:43.874Z,18.40
2017-06-03T21:58:11.361Z,18.40
2017-06-03T22:00:38.842Z,18.20
2017-06-03T22:03:06.343Z,18.10
2017-06-03T22:05:33.829Z,18.00
2017-06-03T22:08:01.326Z,18.10
2017-06-03T22:10:28.810Z,18.00
2017-06-03T22:12:56.291Z,18.10
2017-06-03T22:15:23.794Z,18.00
2017-06-03T22:17:51.280Z,17.90
2017-06-03T22:20:19.545Z,17.80
2017-06-03T22:22:47.024Z,17.80
2017-06-03T22:25:14.507Z,17.70
2017-06-03T22:27:42.009Z,17.70
2017-06-03T22:30:09.486Z,17.80
2017-06-03T22:32:36.985Z,17.90
2017-06-03T22:35:04.464Z,18.10
2017-06-03T22:37:31.947Z,17.90
2017-06-03T22:39:59.451Z,17.90
2017-06-03T22:42:26.933Z,17.90
2017-06-03T22:44:54.427Z,18.10
2017-06-03T22:47:21.899Z,18.10
2017-06-03T22:49:49.395Z,18.00
2017-06-03T22:52:16.870Z,17.90
2017-06-03T22:54:45.114Z,17.90
2017-06-03T22:57:12.602Z,17.80
2017-06-03T22:59:40.845Z,17.90
2017-06-03T23:02:08.340Z,17.90
2017-06-03T23:04:35.859Z,17.90
2017-06-03T23:07:03.368Z,17.90
2017-06-03T23:09:30.849Z,18.00
2017-06-03T23:11:58.323Z,18.00
2017-06-03T23:14:26.772Z,18.10
2017-06-03T23:16:54.265Z,18.10
2017-06-03T23:19:21.762Z,18.00
2017-06-03T23:21:49.247Z,17.90
2017-06-03T23:24:16.756Z,17.80
2017-06-03T23:26:44.234Z,18.00
2017-06-03T23:29:11.720Z,17.90
2017-06-03T23:31:39.212Z,17.80
2017-06-03T23:34:07.456Z,17.70
2017-06-03T23:36:34.953Z,17.60
2017-06-03T23:39:02.431Z,17.60
2017-06-03T23:41:29.954Z,17.60
2017-06-03T23:43:57.458Z,17.50
2017-06-03T23:46:24.938Z,17.50
2017-06-03T23:48:52.440Z,17.40
2017-06-03T23:51:19.924Z,17.30
2017-06-03T23:53:47.427Z,17.40
2017-06-03T23:56:14.912Z,17.70
2017-06-03T23:58:42.398Z,17.70
